Manhattan Regional Airport
KMHK : now visible

Airfield :











YOU CAN JOIN US ON...

 
LOGIN :

Register | Disclaimer

   EN    FR    IT 

 









Legend :    VFR   Marginal VFR   IFR   Intensive IFR   Very Intensive IFR
Visi :
Ceiling :
>= 8 km
>= 3000ft
5 to 8 km
1000 to 3000 ft
1500m to 5 km
500 to 1000 ft
800 to 1500m
200 to 500 ft
< 800m
< 200 ft
Symbols :   Thunderstorms  Fog  Heavy snow  Heavy precipitations  Wind > 20 kt






- Airport Elevation : 1057 ft
- IATA code : MHK


KMHK - Manhattan Regional

CURRENT METAR :
  • 030852Z AUTO 02004KT 5SM BR CLR 22/21 A3000 RMK AO2 SLP151 T02170206 58004

EXPIRED METARs :
  • 030752Z AUTO 04003KT 4SM BR FEW008 22/21 A3002 RMK AO2 SLP156 T02170206
  • 030724Z AUTO 06003KT 6SM BR SCT005 22/21 A3002 RMK AO2 T02220206
  • 030652Z AUTO 08003KT 8SM OVC005 22/21 A3002 RMK AO2 SLP158 T02220206
  • 030632Z AUTO 06003KT 9SM BKN007 22/20 A3002 RMK AO2 T02170200
  • 030623Z AUTO 00000KT 8SM SCT007 22/20 A3002 RMK AO2 T02170200

TAF KMHK
Valid from the 03 at 08:00 until the 04 at 06:00 UTC


030755Z 0308/0406 VRB03KT 6SM BR SCT005
TEMPO 0309/0311 5SM BR BKN005
FM031100 VRB03KT 5SM BR OVC005
FM031400 12005KT P6SM BKN012
FM031700 13007KT P6SM SCT040
KZKC FIR / North America



MET'MAP, your aeronautical weather chart ! - Copyright ORBIFLY December 2007 - Disclaimer

ORBIFLY MET'MAP TEAM :

Programming & Development : Alexandra Zaïnal
Original concept : Baudouin d'Aumeries
Technical & hardware support : Manuel Goepfert
Assistance : Marc-Olivier Méhu




SOURCES & CREDITS :

   NOAA       Earth
Advisory